createdAt,value
2022-08-02T00:01:06.258Z,100388.72
2022-08-02T00:06:07.148Z,100389.38
2022-08-02T00:11:09.216Z,100380.31
2022-08-02T00:16:09.840Z,100374.25
2022-08-02T00:21:10.498Z,100371.19
2022-08-02T00:26:13.745Z,100374.81
2022-08-02T00:31:14.400Z,100376.00
2022-08-02T00:36:15.165Z,100379.97
2022-08-02T00:41:19.080Z,100382.31
2022-08-02T00:46:21.304Z,100374.72
2022-08-02T00:51:21.905Z,100378.59
2022-08-02T00:56:23.862Z,100381.34
2022-08-02T01:01:38.536Z,100380.81
2022-08-02T01:06:57.444Z,100379.31
2022-08-02T01:12:02.800Z,100373.50
2022-08-02T01:17:09.901Z,100369.38
2022-08-02T01:22:39.441Z,100377.84
2022-08-02T01:27:57.811Z,100380.47
2022-08-02T01:33:02.952Z,100370.38
2022-08-02T01:38:08.547Z,100373.28
2022-08-02T01:43:12.216Z,100374.97
2022-08-02T01:48:17.418Z,100386.41
2022-08-02T01:53:21.273Z,100391.28
2022-08-02T01:58:26.247Z,100387.06
2022-08-02T02:03:30.168Z,100391.66
2022-08-02T02:08:35.005Z,100392.75
2022-08-02T02:13:40.748Z,100391.25
2022-08-02T02:18:45.811Z,100397.81
2022-08-02T02:23:47.179Z,100390.16
2022-08-02T02:28:49.019Z,100395.44
2022-08-02T02:33:53.696Z,100398.44
2022-08-02T02:38:58.187Z,100408.84
2022-08-02T02:44:02.798Z,100407.22
2022-08-02T02:49:05.437Z,100407.47
2022-08-02T02:54:30.114Z,100415.81
2022-08-02T02:59:28.244Z,100417.88
2022-08-02T03:04:36.177Z,100426.78
2022-08-02T03:09:54.469Z,100426.16
2022-08-02T03:14:56.214Z,100438.28
2022-08-02T03:19:58.110Z,100435.66
2022-08-02T03:24:58.699Z,100435.03
2022-08-02T03:29:59.421Z,100432.47
2022-08-02T03:35:02.329Z,100423.66
2022-08-02T03:40:03.775Z,100425.34
2022-08-02T03:45:08.683Z,100409.31
2022-08-02T03:50:13.348Z,100433.88
2022-08-02T03:55:14.510Z,100439.31
2022-08-02T04:00:20.094Z,100446.50
2022-08-02T04:05:22.114Z,100446.97
2022-08-02T04:10:22.717Z,100459.97
2022-08-02T04:15:25.393Z,100458.28
2022-08-02T04:20:30.696Z,100456.41
2022-08-02T04:25:35.785Z,100461.75
2022-08-02T04:30:42.058Z,100467.47
2022-08-02T04:35:44.611Z,100478.59
2022-08-02T04:40:52.917Z,100475.81
2022-08-02T04:45:54.886Z,100491.75
2022-08-02T04:50:56.922Z,100492.31
2022-08-02T04:55:57.605Z,100509.44
2022-08-02T05:00:58.291Z,100505.56
2022-08-02T05:06:00.695Z,100504.34
2022-08-02T05:11:01.321Z,100502.53
2022-08-02T05:16:03.481Z,100503.03
2022-08-02T05:21:05.480Z,100511.88
2022-08-02T05:26:06.151Z,100513.28
2022-08-02T05:31:06.946Z,100503.69
2022-08-02T05:36:16.653Z,100503.94
2022-08-02T05:41:19.105Z,100509.06
2022-08-02T05:46:19.786Z,100514.69
2022-08-02T05:51:24.798Z,100511.28
2022-08-02T05:56:33.795Z,100504.78
2022-08-02T06:01:36.935Z,100507.78
2022-08-02T06:06:44.371Z,100513.41
2022-08-02T06:12:01.961Z,100515.91
2022-08-02T06:17:05.733Z,100517.72
2022-08-02T06:22:32.820Z,100524.72
2022-08-02T06:27:37.686Z,100521.34
2022-08-02T06:32:38.696Z,100526.47
2022-08-02T06:37:54.507Z,100533.97
2022-08-02T06:43:13.276Z,100530.88
2022-08-02T06:48:14.153Z,100523.63
2022-08-02T06:53:16.292Z,100519.81
2022-08-02T06:58:16.952Z,100517.44
2022-08-02T07:03:18.917Z,100512.34
2022-08-02T07:08:21.537Z,100501.44
2022-08-02T07:13:22.177Z,100509.16
2022-08-02T07:18:23.654Z,100513.88
2022-08-02T07:23:25.757Z,100516.47
2022-08-02T07:28:26.472Z,100511.66
2022-08-02T07:33:37.977Z,100514.25
2022-08-02T07:38:41.163Z,100506.66
2022-08-02T07:43:42.054Z,100495.81
2022-08-02T07:48:47.217Z,100490.84
2022-08-02T07:54:02.523Z,100487.56
2022-08-02T07:59:05.445Z,100488.88
2022-08-02T08:04:06.579Z,100472.66
2022-08-02T08:09:08.621Z,100475.91
2022-08-02T08:14:16.193Z,100476.50
2022-08-02T08:19:17.431Z,100477.84
2022-08-02T08:24:19.416Z,100472.22
2022-08-02T08:29:20.122Z,100474.16
2022-08-02T08:34:20.787Z,100472.28
2022-08-02T08:39:22.761Z,100474.09
2022-08-02T08:44:23.384Z,100458.19
2022-08-02T08:49:27.445Z,100464.34
2022-08-02T08:54:31.063Z,100463.97
2022-08-02T08:59:31.915Z,100459.59
2022-08-02T09:04:40.401Z,100467.34
2022-08-02T09:09:51.250Z,100459.34
2022-08-02T09:14:51.947Z,100459.41
2022-08-02T09:20:07.874Z,100452.19
2022-08-02T09:25:16.592Z,100447.34
2022-08-02T09:30:17.685Z,100451.72
2022-08-02T09:36:05.384Z,100446.66
2022-08-02T09:40:55.140Z,100439.81
2022-08-02T09:45:55.804Z,100437.72
2022-08-02T09:50:57.420Z,100437.72
2022-08-02T09:55:59.399Z,100424.09
2022-08-02T10:01:01.117Z,100426.50
2022-08-02T10:06:03.306Z,100415.59
2022-08-02T10:11:05.462Z,100422.00
2022-08-02T10:16:07.070Z,100408.56
2022-08-02T10:21:09.408Z,100414.84
2022-08-02T10:26:18.044Z,100402.88
2022-08-02T10:31:24.040Z,100399.63
2022-08-02T10:36:27.288Z,100411.91
2022-08-02T10:41:50.157Z,100392.63
2022-08-02T10:46:50.842Z,100381.97
2022-08-02T10:52:09.330Z,100378.47
2022-08-02T10:57:20.671Z,100374.75
2022-08-02T11:02:36.605Z,100367.63
2022-08-02T11:07:40.267Z,100362.94
2022-08-02T11:13:04.314Z,100357.09
2022-08-02T11:18:05.113Z,100357.38
2022-08-02T11:23:44.266Z,100367.50
2022-08-02T11:28:51.210Z,100363.81
2022-08-02T11:33:53.239Z,100364.69
2022-08-02T11:39:12.410Z,100360.91
2022-08-02T11:44:18.335Z,100363.25
2022-08-02T11:49:22.760Z,100360.94
2022-08-02T11:54:27.867Z,100355.72
2022-08-02T11:59:29.930Z,100356.22
2022-08-02T12:04:30.787Z,100345.22
2022-08-02T12:09:40.614Z,100333.66
2022-08-02T12:14:44.679Z,100334.84
2022-08-02T12:19:45.703Z,100329.63
2022-08-02T12:24:48.859Z,100327.09
2022-08-02T12:30:00.463Z,100312.75
2022-08-02T12:35:10.797Z,100305.97
2022-08-02T12:40:25.125Z,100300.41
2022-08-02T12:45:40.678Z,100304.28
2022-08-02T12:50:43.354Z,100307.06
2022-08-02T12:56:01.046Z,100291.09
2022-08-02T13:01:05.140Z,100279.25
2022-08-02T13:06:22.876Z,100288.97
2022-08-02T13:11:27.751Z,100282.31
2022-08-02T13:16:31.601Z,100296.03
2022-08-02T13:21:41.023Z,100290.84
2022-08-02T13:26:52.945Z,100274.47
2022-08-02T13:31:54.893Z,100266.16
2022-08-02T13:36:55.507Z,100270.47
2022-08-02T13:41:56.381Z,100264.75
2022-08-02T13:46:58.347Z,100255.03
2022-08-02T13:51:58.958Z,100256.22
2022-08-02T13:56:59.614Z,100249.97
2022-08-02T14:02:01.739Z,100239.38
2022-08-02T14:07:02.513Z,100242.38
2022-08-02T14:12:03.238Z,100237.94
2022-08-02T14:17:05.356Z,100240.53
2022-08-02T14:22:10.774Z,100239.41
2022-08-02T14:27:13.566Z,100231.91
2022-08-02T14:32:16.005Z,100229.53
2022-08-02T14:37:16.967Z,100227.28
2022-08-02T14:42:18.178Z,100228.28
2022-08-02T14:47:20.165Z,100216.00
2022-08-02T14:52:20.938Z,100218.75
2022-08-02T14:57:21.553Z,100216.34
2022-08-02T15:02:26.096Z,100204.50
2022-08-02T15:07:26.820Z,100212.19
2022-08-02T15:12:27.482Z,100222.41
2022-08-02T15:17:29.445Z,100196.84
2022-08-02T15:22:30.071Z,100195.25
2022-08-02T15:27:31.705Z,100190.53
2022-08-02T15:32:33.770Z,100195.25
2022-08-02T15:37:38.215Z,100179.50
2022-08-02T15:42:43.747Z,100189.72
2022-08-02T15:47:48.275Z,100185.63
2022-08-02T15:52:51.395Z,100186.59
2022-08-02T15:57:52.031Z,100189.16
2022-08-02T16:02:55.059Z,100193.44
2022-08-02T16:07:55.682Z,100190.81
2022-08-02T16:13:16.318Z,100189.44
2022-08-02T16:18:18.256Z,100177.97
2022-08-02T16:23:18.873Z,100173.31
2022-08-02T16:28:39.647Z,100185.53
2022-08-02T16:33:41.774Z,100179.28
2022-08-02T16:38:42.566Z,100174.00
2022-08-02T16:43:43.180Z,100174.66
2022-08-02T16:48:51.060Z,100172.44
2022-08-02T16:54:00.316Z,100175.69
2022-08-02T16:59:01.347Z,100181.69
2022-08-02T17:04:04.737Z,100166.75
2022-08-02T17:09:06.450Z,100168.56
2022-08-02T17:14:07.561Z,100171.59
2022-08-02T17:19:12.013Z,100178.75
2022-08-02T17:24:12.687Z,100172.88
2022-08-02T17:34:37.383Z,100186.81
2022-08-02T17:39:44.131Z,100188.38
2022-08-02T17:44:53.972Z,100188.78
2022-08-02T17:49:56.777Z,100183.69
2022-08-02T17:54:57.663Z,100189.00
2022-08-02T18:00:04.214Z,100186.16
2022-08-02T18:05:11.908Z,100179.34
2022-08-02T18:10:14.371Z,100188.13
2022-08-02T18:15:16.275Z,100186.94
2022-08-02T18:20:22.131Z,100190.47
2022-08-02T18:25:37.192Z,100191.94
2022-08-02T18:30:44.745Z,100197.50
2022-08-02T18:35:47.365Z,100206.09
2022-08-02T18:40:51.231Z,100203.88
2022-08-02T18:46:15.759Z,100204.31
2022-08-02T18:51:19.395Z,100205.53
2022-08-02T18:56:24.210Z,100213.16
2022-08-02T19:01:31.893Z,100210.00
2022-08-02T19:06:35.336Z,100216.19
2022-08-02T19:11:35.963Z,100220.31
2022-08-02T19:16:38.235Z,100217.94
2022-08-02T19:22:18.486Z,100223.06
2022-08-02T19:27:09.073Z,100217.69
2022-08-02T19:32:42.537Z,100228.44
2022-08-02T19:37:39.357Z,100232.00
2022-08-02T19:44:21.143Z,100240.41
2022-08-02T19:48:06.444Z,100243.25
2022-08-02T19:53:09.863Z,100243.97
2022-08-02T19:58:12.191Z,100251.91
2022-08-02T20:03:15.963Z,100241.66
2022-08-02T20:08:31.661Z,100251.34
2022-08-02T20:13:46.955Z,100246.63
2022-08-02T20:18:48.021Z,100261.66
2022-08-02T20:23:50.073Z,100262.25
2022-08-02T20:28:51.273Z,100270.41
2022-08-02T20:33:55.411Z,100268.53
2022-08-02T20:38:58.320Z,100273.66
2022-08-02T20:43:59.253Z,100271.34
2022-08-02T20:49:03.631Z,100268.53
2022-08-02T20:54:09.012Z,100271.22
2022-08-02T21:04:31.396Z,100274.44
2022-08-02T21:09:53.150Z,100266.97
2022-08-02T21:14:54.317Z,100266.81
2022-08-02T21:19:54.929Z,100261.31
2022-08-02T21:24:56.993Z,100269.06
2022-08-02T21:29:57.665Z,100262.44
2022-08-02T21:34:58.636Z,100270.56
2022-08-02T21:40:00.560Z,100270.94
2022-08-02T21:45:01.201Z,100267.13
2022-08-02T21:50:17.770Z,100259.53
2022-08-02T21:55:21.154Z,100263.94
2022-08-02T22:00:28.929Z,100276.00
2022-08-02T22:05:29.729Z,100270.56
2022-08-02T22:10:53.400Z,100262.94
2022-08-02T22:15:57.541Z,100266.84
2022-08-02T22:21:00.203Z,100263.88
2022-08-02T22:26:02.402Z,100266.56
2022-08-02T22:31:04.707Z,100274.44
2022-08-02T22:36:07.249Z,100273.69
2022-08-02T22:41:13.671Z,100281.66
2022-08-02T22:51:34.948Z,100282.78
2022-08-02T22:56:38.767Z,100291.50
2022-08-02T22:58:49.403Z,100182.69
2022-08-02T22:59:05.372Z,100278.34
2022-08-02T22:59:09.787Z,100285.38
2022-08-02T23:01:45.345Z,100286.78
2022-08-02T23:06:45.977Z,100283.06
2022-08-02T23:11:47.919Z,100292.47
2022-08-02T23:17:05.930Z,100286.38
2022-08-02T23:22:06.598Z,100291.94
2022-08-02T23:27:08.626Z,100292.09
2022-08-02T23:32:09.678Z,100283.09
2022-08-02T23:37:10.408Z,100293.50
2022-08-02T23:42:12.333Z,100290.72
2022-08-02T23:47:12.938Z,100285.41
2022-08-02T23:52:14.293Z,100290.09
2022-08-02T23:57:20.904Z,100288.09
